ADDS METAR Data INFO
IDs: Format: Raw Decoded Include TAF

Data at: 2210 UTC 24 Jun 2018

KSAR 242155Z AUTO 00000KT 10SM RA BKN080 OVC090 25/22 A2995 RMK AO2 T02450221
KSAR 242135Z AUTO 10005KT 10SM OVC090 25/23 A2993 RMK AO2 T02470227
KSAR 242115Z AUTO 09005KT 10SM BKN090 25/22 A2993 RMK AO2 T02510223
KSAR 242055Z AUTO 11003KT 10SM SCT090 25/22 A2994 RMK AO2 T02500223
KSAR 242035Z AUTO 00000KT 10SM SCT034 SCT043 OVC090 25/23 A2995 RMK AO2 T02500228
KSAR 242015Z AUTO 00000KT 10SM -DZ SCT034 BKN048 OVC100 24/22 A2995 RMK AO2 T02410216
KSAR 241955Z AUTO 15004KT 10SM SCT041 BKN100 OVC110 24/23 A2994 RMK AO2 T02370227
KSAR 241935Z AUTO 08006KT 10SM -RA SCT047 SCT070 OVC100 23/22 A2992 RMK AO2 T02300224
KSAR 241915Z AUTO 00000KT 10SM -RA SCT026 BKN090 OVC110 23/20 A2994 RMK AO2 LTG DSNT E SW AND W T02260199
KSAR 241855Z AUTO 18018G22KT 10SM RA SCT026 BKN060 OVC090 26/23 A2999 RMK AO2 LTG DSNT SE THRU SW T02590227
KSAR 241835Z AUTO 17008KT 10SM BKN060 BKN070 BKN090 27/23 A2999 RMK AO2 LTG DSNT SE AND S T02670228
KSAR 241815Z AUTO 17007KT 10SM BKN060 BKN090 27/22 A2998 RMK AO2 T02740216
KSAR 241755Z AUTO 18008KT 10SM BKN060 28/21 A2999 RMK AO2 LTG DSNT S T02760208 10282 20212
KSAR 241735Z AUTO 17004KT 10SM CLR 28/21 A2997 RMK AO2 LTG DSNT S T02790210
KSAR 241715Z AUTO 00000KT 10SM CLR 28/21 A2995 RMK AO2 LTG DSNT S AND SW T02770208
KSAR 241655Z AUTO 00000KT 10SM CLR 28/21 A2994 RMK AO2 T02780209
KSAR 241635Z AUTO 13003KT 10SM SCT037 28/21 A2994 RMK AO2 LTG DSNT S T02800214
KSAR 241615Z AUTO 18008KT 10SM CLR 28/22 A2996 RMK AO2 T02820218
KSAR 241555Z AUTO 18004KT 10SM CLR 28/21 A2997 RMK AO2 T02760214
KSAR 241535Z AUTO 15004KT 10SM CLR 27/22 A2997 RMK AO2 T02730220
KSAR 241515Z AUTO 14004KT 10SM CLR 27/23 A2996 RMK AO2 LTG DSNT SW T02670226
KSAR 241455Z AUTO 15006KT 10SM CLR 26/23 A2996 RMK AO2 T02610226
KSAR 241435Z AUTO 17004KT 10SM CLR 26/22 A2995 RMK AO2 T02550217
KSAR 241415Z AUTO 15005KT 10SM CLR 25/22 A2995 RMK AO2 T02530224
KSAR 241355Z AUTO 00000KT 10SM CLR 25/23 A2994 RMK AO2 T02460231
KSAR 241335Z AUTO 14003KT 10SM CLR 24/23 A2993 RMK AO2 T02410227
KSAR 241315Z AUTO 00000KT 10SM CLR 24/23 A2993 RMK AO2 T02370231
KSAR 241255Z AUTO 13003KT 10SM CLR 23/23 A2993 RMK AO2 T02300225
KSAR 241235Z AUTO 00000KT 10SM CLR 22/22 A2994 RMK AO2 T02240220
KSAR 241215Z AUTO 00000KT 10SM CLR 22/22 A2993 RMK AO2 T02170216
KSAR 241155Z AUTO 00000KT 10SM CLR 21/21 A2993 RMK AO2 T02100210 10210 20188
KSAR 241135Z AUTO 00000KT 10SM CLR 20/20 A2993 RMK AO2 T02020202
KSAR 241115Z AUTO 00000KT 10SM CLR 20/20 A2991 RMK AO2 T01950195
KSAR 241055Z AUTO 00000KT 5SM BR CLR 19/19 A2989 RMK AO2 T01910191
KSAR 241035Z AUTO 00000KT 7SM CLR 19/19 A2989 RMK AO2 T01880188
KSAR 241015Z AUTO 00000KT 7SM CLR 19/19 A2989 RMK AO2 T01880188
KSAR 240955Z AUTO 00000KT 5SM BR CLR 19/19 A2989 RMK AO2 T01930193
KSAR 240935Z AUTO 00000KT 5SM BR CLR 19/19 A2989 RMK AO2 T01940194
KSAR 240915Z AUTO 00000KT 10SM CLR 20/20 A2990 RMK AO2 T01980198
KSAR 240855Z AUTO 00000KT 10SM CLR 20/20 A2990 RMK AO2 T01990199
KSAR 240835Z AUTO 00000KT 10SM CLR 20/20 A2989 RMK AO2 T02010201
KSAR 240815Z AUTO 00000KT 10SM CLR 21/21 A2989 RMK AO2 T02050205
KSAR 240755Z AUTO 00000KT 5SM BR CLR 20/20 A2988 RMK AO2 T02020202
KSAR 240735Z AUTO 00000KT 10SM CLR 20/20 A2988 RMK AO2 T02020202
KSAR 240715Z AUTO 00000KT 4SM BR CLR 20/20 A2988 RMK AO2 T02000200
KSAR 240655Z AUTO 00000KT 1SM BR VV007 20/20 A2987 RMK AO2 T02000200
KSAR 240635Z AUTO 00000KT 3/4SM BR VV005 20/20 A2987 RMK AO2 T02020202
KSAR 240615Z AUTO 00000KT 1 1/2SM BR VV007 21/21 A2987 RMK AO2 T02050205
KSAR 240555Z AUTO 00000KT 3/4SM BR VV005 21/21 A2987 RMK AO2 T02080208 10260 20207
KSAR 240535Z AUTO 00000KT 10SM CLR 21/21 A2987 RMK AO2 T02100210
KSAR 240515Z AUTO 00000KT 2SM BR CLR 21/21 A2987 RMK AO2 T02120212
KSAR 240455Z AUTO 00000KT 10SM CLR 22/22 A2987 RMK AO2 T02170217
KSAR 240435Z AUTO 32003KT 10SM CLR 22/22 A2987 RMK AO2 T02180218
KSAR 240415Z AUTO 00000KT 10SM CLR 22/22 A2987 RMK AO2 T02200216
KSAR 240355Z AUTO 00000KT 10SM CLR 22/22 A2986 RMK AO2 T02200220 402720180
KSAR 240335Z AUTO 00000KT 10SM CLR 22/22 A2985 RMK AO2 T02230222
KSAR 240315Z AUTO 00000KT 3SM BR CLR 23/22 A2984 RMK AO2 T02250221
KSAR 240255Z AUTO 00000KT 10SM CLR 23/22 A2984 RMK AO2 T02300216
KSAR 240235Z AUTO 00000KT 10SM CLR 24/22 A2983 RMK AO2 T02350218
KSAR 240215Z AUTO 00000KT 5SM BR CLR 23/23 A2983 RMK AO2 T02320227
KSAR 240155Z AUTO 00000KT 10SM CLR 24/22 A2982 RMK AO2 T02420221
KSAR 240135Z AUTO 00000KT 10SM CLR 25/22 A2982 RMK AO2 T02460220
KSAR 240115Z AUTO 00000KT 10SM SCT060 25/21 A2981 RMK AO2 T02500212
KSAR 240055Z AUTO 00000KT 10SM CLR 26/22 A2981 RMK AO2 T02550215
KSAR 240035Z AUTO 00000KT 10SM CLR 26/21 A2981 RMK AO2 T02600209
KSAR 240015Z AUTO 00000KT 10SM SCT060 26/20 A2981 RMK AO2 T02600204
KSAR 232355Z AUTO 00000KT 10SM OVC060 26/21 A2981 RMK AO2 T02610206 10272 20247
KSAR 232335Z AUTO 02004KT 10SM OVC060 26/21 A2981 RMK AO2 T02630211
KSAR 232315Z AUTO 34004KT 10SM BKN060 OVC080 26/20 A2981 RMK AO2 LTG DSNT SE T02630203
KSAR 232255Z AUTO 33003KT 10SM SCT060 OVC080 27/20 A2980 RMK AO2 T02680199
KSAR 232235Z AUTO 00000KT 10SM BKN070 OVC090 27/20 A2980 RMK AO2 T02720203
KSAR 232215Z AUTO 00000KT 10SM BKN070 OVC090 27/20 A2980 RMK AO2 T02650199
KSAR 232155Z AUTO 00000KT 10SM SCT060 BKN070 BKN080 26/20 A2980 RMK AO2 T02630198
KSAR 232135Z AUTO 33003KT 10SM SCT041 BKN090 27/20 A2980 RMK AO2 T02650201
KSAR 232115Z AUTO 32003KT 10SM SCT041 BKN060 OVC090 27/20 A2980 RMK AO2 T02650201
KSAR 232055Z AUTO 27004KT 10SM SCT037 SCT050 OVC065 27/20 A2981 RMK AO2 T02650202
KSAR 232035Z AUTO 00000KT 10SM SCT037 BKN065 OVC090 26/20 A2981 RMK AO2 T02620195
KSAR 232015Z AUTO 23004KT 10SM SCT050 OVC065 26/20 A2982 RMK AO2 T02630196
KSAR 231955Z AUTO 30003KT 10SM SCT047 BKN050 OVC065 26/19 A2982 RMK AO2 T02640194
KSAR 231935Z AUTO 22006KT 10SM BKN041 BKN050 OVC055 26/19 A2982 RMK AO2 T02600190
KSAR 231915Z AUTO 25006KT 10SM BKN039 OVC047 26/19 A2982 RMK AO2 T02590190
KSAR 231855Z AUTO 00000KT 10SM OVC037 25/19 A2982 RMK AO2 T02510186
KSAR 231835Z AUTO 22005KT 10SM OVC037 25/19 A2982 RMK AO2 T02510192
KSAR 231815Z AUTO 00000KT 10SM SCT034 BKN040 25/19 A2982 RMK AO2 T02480189
KSAR 231755Z AUTO 22005KT 10SM BKN034 OVC040 25/19 A2982 RMK AO2 T02470193 10251 20190
KSAR 231735Z AUTO 00000KT 10SM BKN032 BKN038 25/20 A2981 RMK AO2 T02500199
KSAR 231715Z AUTO 00000KT 10SM SCT027 SCT034 24/19 A2980 RMK AO2 T02430191
KSAR 231655Z AUTO 22003KT 10SM BKN028 BKN035 24/20 A2982 RMK AO2 T02420200
KSAR 231635Z AUTO 21007KT 10SM SCT030 SCT037 24/20 A2982 RMK AO2 T02370196
KSAR 231615Z AUTO 22005KT 10SM SCT028 SCT037 23/19 A2983 RMK AO2 T02330189
KSAR 231555Z AUTO 20004KT 10SM BKN028 BKN037 24/19 A2983 RMK AO2 T02350193
KSAR 231535Z AUTO 24005KT 10SM SCT030 SCT035 SCT041 23/19 A2983 RMK AO2 T02300187
KSAR 231515Z AUTO 23003KT 10SM CLR 23/19 A2983 RMK AO2 T02300185
KSAR 231455Z AUTO 25005KT 10SM CLR 23/19 A2983 RMK AO2 T02300187
KSAR 231435Z AUTO 25003KT 10SM CLR 22/19 A2983 RMK AO2 T02230189
KSAR 231415Z AUTO 00000KT 10SM CLR 22/19 A2983 RMK AO2 T02230189
KSAR 231355Z AUTO 00000KT 10SM CLR 22/19 A2983 RMK AO2 T02170189
KSAR 231335Z AUTO 24004KT 10SM CLR 21/19 A2984 RMK AO2 T02140190
KSAR 231315Z AUTO 28004KT 10SM CLR 21/19 A2983 RMK AO2 T02090192
KSAR 231255Z AUTO 29004KT 10SM CLR 21/20 A2983 RMK AO2 T02060197
KSAR 231235Z AUTO 28004KT 10SM CLR 20/20 A2983 RMK AO2 T02010196
KSAR 231215Z AUTO 27003KT 10SM CLR 20/20 A2983 RMK AO2 T01950195
KSAR 231155Z AUTO 27003KT 10SM CLR 19/19 A2982 RMK AO2 70018 T01900190 10198 20180
KSAR 231135Z AUTO 00000KT 10SM CLR 19/19 A2981 RMK AO2 T01850185
KSAR 231115Z AUTO 00000KT 10SM CLR 18/18 A2981 RMK AO2 T01810181
KSAR 231055Z AUTO 24003KT 10SM CLR 18/18 A2982 RMK AO2 T01810181
KSAR 231035Z AUTO 23003KT 10SM CLR 18/18 A2983 RMK AO2 T01810181
KSAR 231015Z AUTO 00000KT 10SM CLR 18/18 A2980 RMK AO2 T01820182